createdAt,value
2023-02-24T00:01:51.447Z,9.81
2023-02-24T00:04:21.804Z,9.92
2023-02-24T00:06:49.331Z,9.94
2023-02-24T00:09:24.835Z,9.98
2023-02-24T00:12:06.264Z,9.98
2023-02-24T00:14:35.990Z,9.96
2023-02-24T00:17:03.154Z,9.99
2023-02-24T00:19:35.341Z,10.08
2023-02-24T00:22:03.144Z,10.13
2023-02-24T00:24:31.172Z,10.09
2023-02-24T00:27:07.662Z,10.24
2023-02-24T00:29:37.662Z,10.25
2023-02-24T00:32:08.095Z,10.13
2023-02-24T00:34:36.516Z,9.88
2023-02-24T00:37:04.148Z,9.77
2023-02-24T00:39:34.827Z,9.64
2023-02-24T00:42:05.677Z,9.47
2023-02-24T00:44:36.281Z,9.34
2023-02-24T00:47:05.013Z,9.30
2023-02-24T00:49:32.637Z,9.32
2023-02-24T00:52:00.280Z,9.36
2023-02-24T00:54:28.492Z,9.44
2023-02-24T00:56:56.391Z,9.51
2023-02-24T00:59:24.198Z,9.53
2023-02-24T01:01:52.069Z,9.56
2023-02-24T01:04:20.243Z,9.53
2023-02-24T01:07:11.904Z,9.52
2023-02-24T01:09:39.820Z,9.51
2023-02-24T01:12:29.200Z,9.53
2023-02-24T01:15:09.190Z,9.53
2023-02-24T01:17:37.721Z,9.52
2023-02-24T01:20:16.000Z,9.47
2023-02-24T01:22:46.853Z,9.49
2023-02-24T01:25:14.436Z,9.48
2023-02-24T01:27:41.941Z,9.45
2023-02-24T01:30:16.847Z,9.47
2023-02-24T01:32:44.382Z,9.40
2023-02-24T01:35:12.307Z,9.40
2023-02-24T01:37:40.121Z,9.41
2023-02-24T01:40:12.131Z,9.41
2023-02-24T01:42:42.465Z,9.44
2023-02-24T01:45:15.018Z,9.41
2023-02-24T01:47:41.607Z,9.44
2023-02-24T01:50:09.877Z,9.40
2023-02-24T01:52:37.628Z,9.35
2023-02-24T01:55:13.395Z,9.33
2023-02-24T01:57:41.535Z,9.30
2023-02-24T02:00:20.441Z,9.19
2023-02-24T02:02:54.679Z,9.17
2023-02-24T02:05:22.678Z,9.09
2023-02-24T02:07:51.376Z,9.08
2023-02-24T02:10:19.556Z,9.06
2023-02-24T02:12:46.666Z,9.07
2023-02-24T02:15:14.528Z,9.09
2023-02-24T02:17:59.657Z,9.11
2023-02-24T02:20:32.726Z,9.12
2023-02-24T02:23:18.077Z,9.11
2023-02-24T02:26:05.955Z,9.07
2023-02-24T02:28:45.539Z,8.93
2023-02-24T02:31:46.773Z,8.82
2023-02-24T02:34:27.751Z,8.77
2023-02-24T02:37:00.535Z,8.77
2023-02-24T02:39:47.318Z,8.73
2023-02-24T02:42:38.734Z,8.65
2023-02-24T02:45:33.731Z,8.56
2023-02-24T02:48:17.624Z,8.57
2023-02-24T02:51:18.965Z,8.58
2023-02-24T02:53:59.393Z,8.52
2023-02-24T02:56:30.916Z,8.37
2023-02-24T02:58:58.707Z,8.26
2023-02-24T03:01:28.530Z,8.29
2023-02-24T03:03:56.922Z,8.34
2023-02-24T03:06:28.130Z,8.44
2023-02-24T03:09:11.529Z,8.53
2023-02-24T03:11:59.778Z,8.57
2023-02-24T03:14:28.847Z,8.56
2023-02-24T03:16:55.894Z,8.55
2023-02-24T03:19:37.349Z,8.47
2023-02-24T03:22:12.518Z,8.47
2023-02-24T03:24:41.150Z,8.49
2023-02-24T03:27:34.482Z,8.51
2023-02-24T03:30:09.717Z,8.50
2023-02-24T03:32:58.612Z,8.45
2023-02-24T03:35:38.181Z,8.41
2023-02-24T03:38:06.426Z,8.39
2023-02-24T03:40:36.157Z,8.38
2023-02-24T03:43:06.014Z,8.40
2023-02-24T03:45:35.816Z,8.40
2023-02-24T03:48:03.725Z,8.36
2023-02-24T03:50:32.508Z,8.38
2023-02-24T03:53:31.441Z,8.29
2023-02-24T03:56:22.245Z,8.21
2023-02-24T03:59:15.334Z,8.21
2023-02-24T04:01:51.103Z,8.23
2023-02-24T04:04:30.429Z,8.26
2023-02-24T04:07:10.062Z,8.31
2023-02-24T04:10:15.554Z,8.34
2023-02-24T04:12:50.282Z,8.34
2023-02-24T04:15:23.991Z,8.35
2023-02-24T04:18:07.287Z,8.33
2023-02-24T04:20:35.381Z,8.21
2023-02-24T04:23:13.096Z,8.07
2023-02-24T04:25:40.498Z,7.98
2023-02-24T04:28:10.562Z,8.01
2023-02-24T04:30:40.950Z,8.09
2023-02-24T04:33:08.260Z,8.14
2023-02-24T04:35:35.778Z,8.19
2023-02-24T04:38:03.737Z,8.18
2023-02-24T04:40:31.486Z,8.23
2023-02-24T04:42:59.060Z,8.26
2023-02-24T04:45:29.257Z,8.24
2023-02-24T04:48:01.147Z,8.23
2023-02-24T04:50:33.585Z,8.16
2023-02-24T04:53:14.872Z,8.09
2023-02-24T04:55:48.987Z,7.99
2023-02-24T04:58:26.086Z,7.92
2023-02-24T05:00:54.495Z,7.89
2023-02-24T05:03:23.202Z,7.91
2023-02-24T05:06:15.212Z,7.99
2023-02-24T05:08:42.830Z,8.01
2023-02-24T05:11:34.996Z,8.05
2023-02-24T05:14:04.695Z,8.10
2023-02-24T05:16:32.505Z,8.15
2023-02-24T05:19:18.771Z,8.14
2023-02-24T05:21:46.921Z,8.15
2023-02-24T05:24:17.237Z,8.19
2023-02-24T05:26:44.963Z,8.25
2023-02-24T05:29:13.301Z,8.26
2023-02-24T05:31:41.303Z,8.28
2023-02-24T05:34:09.044Z,8.32
2023-02-24T05:36:40.671Z,8.36
2023-02-24T05:39:12.004Z,8.46
2023-02-24T05:41:42.328Z,8.53
2023-02-24T05:44:23.866Z,8.54
2023-02-24T05:46:56.900Z,8.53
2023-02-24T05:49:33.281Z,8.55
2023-02-24T05:52:01.960Z,8.56
2023-02-24T05:54:35.836Z,8.54
2023-02-24T05:57:09.352Z,8.54
2023-02-24T05:59:37.391Z,8.54
2023-02-24T06:02:09.672Z,8.56
2023-02-24T06:04:45.739Z,8.55
2023-02-24T06:07:14.311Z,8.52
2023-02-24T06:09:45.461Z,8.48
2023-02-24T06:12:16.625Z,8.44
2023-02-24T06:14:45.194Z,8.46
2023-02-24T06:17:15.244Z,8.45
2023-02-24T06:19:43.553Z,8.41
2023-02-24T06:22:13.389Z,8.38
2023-02-24T06:24:44.472Z,8.38
2023-02-24T06:27:19.307Z,8.38
2023-02-24T06:29:50.166Z,8.37
2023-02-24T06:32:22.846Z,8.43
2023-02-24T06:34:52.091Z,8.44
2023-02-24T06:37:20.110Z,8.44
2023-02-24T06:39:48.106Z,8.47
2023-02-24T06:42:16.116Z,8.47
2023-02-24T06:44:43.967Z,8.49
2023-02-24T06:47:14.520Z,8.53
2023-02-24T06:49:42.970Z,8.55
2023-02-24T06:54:44.861Z,8.63
2023-02-24T06:57:12.950Z,8.74
2023-02-24T06:59:41.288Z,8.78
2023-02-24T07:02:11.148Z,8.82
2023-02-24T07:04:45.948Z,8.90
2023-02-24T07:07:17.863Z,8.93
2023-02-24T07:09:48.814Z,9.02
2023-02-24T07:12:21.255Z,9.05
2023-02-24T07:14:50.586Z,9.04
2023-02-24T07:17:20.724Z,9.06
2023-02-24T07:19:49.332Z,9.12
2023-02-24T07:22:17.715Z,9.12
2023-02-24T07:24:46.555Z,9.10
2023-02-24T07:27:22.734Z,9.11
2023-02-24T07:29:53.730Z,9.16
2023-02-24T07:32:22.669Z,9.21
2023-02-24T07:34:51.320Z,9.31
2023-02-24T07:37:20.755Z,9.39
2023-02-24T07:39:49.404Z,9.45
2023-02-24T07:42:18.319Z,9.53
2023-02-24T07:44:49.347Z,9.59
2023-02-24T07:47:17.714Z,9.61
2023-02-24T07:49:45.988Z,9.67
2023-02-24T07:52:14.267Z,9.74
2023-02-24T07:54:43.369Z,9.78
2023-02-24T07:57:14.343Z,9.83
2023-02-24T07:59:45.406Z,9.85
2023-02-24T08:02:14.103Z,9.90
2023-02-24T08:04:48.386Z,9.96
2023-02-24T08:07:17.311Z,10.02
2023-02-24T08:09:45.650Z,10.12
2023-02-24T08:12:18.398Z,10.23
2023-02-24T08:14:51.003Z,10.31
2023-02-24T08:17:23.307Z,10.45
2023-02-24T08:20:01.185Z,10.53
2023-02-24T08:22:37.559Z,10.62
2023-02-24T08:25:07.397Z,10.72
2023-02-24T08:27:39.167Z,10.78
2023-02-24T08:30:09.775Z,10.81
2023-02-24T08:32:45.130Z,10.78
2023-02-24T08:35:20.446Z,10.80
2023-02-24T08:38:09.793Z,10.83
2023-02-24T08:40:50.304Z,10.91
2023-02-24T08:43:33.272Z,10.92
2023-02-24T08:46:19.165Z,10.96
2023-02-24T08:48:50.204Z,11.04
2023-02-24T08:51:23.546Z,11.14
2023-02-24T08:53:55.747Z,11.27
2023-02-24T08:56:26.495Z,11.42
2023-02-24T08:59:05.804Z,11.47
2023-02-24T09:01:36.919Z,11.52
2023-02-24T09:04:08.765Z,11.67
2023-02-24T09:06:37.538Z,11.80
2023-02-24T09:09:18.921Z,11.98
2023-02-24T09:12:10.691Z,12.14
2023-02-24T09:14:38.309Z,12.13
2023-02-24T09:17:11.423Z,12.11
2023-02-24T09:19:52.611Z,12.14
2023-02-24T09:22:33.093Z,12.21
2023-02-24T09:25:19.187Z,12.29
2023-02-24T09:27:48.312Z,12.35
2023-02-24T09:30:35.479Z,12.44
2023-02-24T09:33:42.370Z,12.53
2023-02-24T09:36:44.956Z,12.67
2023-02-24T09:39:14.878Z,12.73
2023-02-24T09:42:18.154Z,12.87
2023-02-24T09:45:11.485Z,13.00
2023-02-24T09:47:40.161Z,13.10
2023-02-24T09:50:55.151Z,13.13
2023-02-24T09:53:14.791Z,13.23
2023-02-24T09:56:17.869Z,13.23
2023-02-24T09:59:07.321Z,13.31
2023-02-24T10:01:36.973Z,13.50
2023-02-24T10:04:49.178Z,13.72
2023-02-24T10:07:19.237Z,13.79
2023-02-24T10:10:19.903Z,13.91
2023-02-24T10:12:53.912Z,14.09
2023-02-24T10:15:41.157Z,14.24
2023-02-24T10:18:27.451Z,14.37
2023-02-24T10:21:48.369Z,14.55
2023-02-24T10:24:24.550Z,14.59
2023-02-24T10:27:16.851Z,14.62
2023-02-24T10:30:05.868Z,14.88
2023-02-24T10:32:51.255Z,15.22
2023-02-24T10:35:20.692Z,15.57
2023-02-24T10:37:49.308Z,15.69
2023-02-24T10:40:26.502Z,15.77
2023-02-24T10:43:10.759Z,15.92
2023-02-24T10:45:45.243Z,16.19
2023-02-24T10:48:42.745Z,16.52
2023-02-24T10:51:20.141Z,16.65
2023-02-24T10:54:08.857Z,16.96
2023-02-24T10:56:55.644Z,17.21
2023-02-24T10:59:48.275Z,17.43
2023-02-24T11:02:29.725Z,17.42
2023-02-24T11:05:03.556Z,17.36
2023-02-24T11:07:45.405Z,17.48
2023-02-24T11:10:25.903Z,17.71
2023-02-24T11:13:25.885Z,17.70
2023-02-24T11:16:12.370Z,17.48
2023-02-24T11:18:40.101Z,17.35
2023-02-24T11:21:09.436Z,17.35
2023-02-24T11:23:45.156Z,17.24
2023-02-24T11:26:21.563Z,17.36
2023-02-24T11:29:17.542Z,17.52
2023-02-24T11:32:18.951Z,17.75
2023-02-24T11:34:51.736Z,18.18
2023-02-24T11:37:43.094Z,18.65
2023-02-24T11:40:19.801Z,18.71
2023-02-24T11:42:56.210Z,18.64
2023-02-24T11:45:43.157Z,18.47
2023-02-24T11:48:25.335Z,18.45
2023-02-24T11:51:06.514Z,18.58
2023-02-24T11:53:58.063Z,18.68
2023-02-24T11:56:31.434Z,18.75
2023-02-24T11:59:30.782Z,18.77
2023-02-24T12:02:17.604Z,18.76
2023-02-24T12:04:56.697Z,19.01
2023-02-24T12:07:54.728Z,19.23
2023-02-24T12:10:47.693Z,19.25
2023-02-24T12:13:41.011Z,19.17
2023-02-24T12:16:08.006Z,19.07
2023-02-24T12:18:37.352Z,19.22
2023-02-24T12:21:24.961Z,19.43
2023-02-24T12:23:53.782Z,19.42
2023-02-24T12:26:25.227Z,19.42
2023-02-24T12:29:16.248Z,19.81
2023-02-24T12:31:54.499Z,19.92
2023-02-24T12:34:36.232Z,19.87
2023-02-24T12:37:24.520Z,19.78
2023-02-24T12:40:01.753Z,19.60
2023-02-24T12:43:02.299Z,19.56
2023-02-24T12:45:46.375Z,19.66
2023-02-24T12:48:28.814Z,19.54
2023-02-24T12:51:21.511Z,19.48
2023-02-24T12:54:09.755Z,19.48
2023-02-24T12:57:00.911Z,19.61
2023-02-24T12:59:29.475Z,19.41
2023-02-24T13:02:30.556Z,19.45
2023-02-24T13:05:08.657Z,19.51
2023-02-24T13:07:39.696Z,19.80
2023-02-24T13:10:36.760Z,20.27
2023-02-24T13:13:15.690Z,20.88
2023-02-24T13:16:10.225Z,21.18
2023-02-24T13:18:39.667Z,21.48
2023-02-24T13:21:15.787Z,21.61
2023-02-24T13:23:43.468Z,21.31
2023-02-24T13:26:10.568Z,21.09
2023-02-24T13:28:38.523Z,20.78
2023-02-24T13:31:10.351Z,20.45
2023-02-24T13:33:42.192Z,20.17
2023-02-24T13:36:36.321Z,19.57
2023-02-24T13:39:03.262Z,19.28
2023-02-24T13:41:30.221Z,19.37
2023-02-24T13:43:58.469Z,19.83
2023-02-24T13:46:26.655Z,20.30
2023-02-24T13:49:14.571Z,20.77
2023-02-24T13:51:50.571Z,21.13
2023-02-24T13:54:29.368Z,21.43
2023-02-24T13:57:34.844Z,21.39
2023-02-24T14:00:12.619Z,21.14
2023-02-24T14:02:42.902Z,20.91
2023-02-24T14:05:17.413Z,21.23
2023-02-24T14:07:44.717Z,21.64
2023-02-24T14:10:23.252Z,21.66
2023-02-24T14:12:51.569Z,21.31
2023-02-24T14:15:26.253Z,21.12
2023-02-24T14:18:20.256Z,21.01
2023-02-24T14:20:47.959Z,20.67
2023-02-24T14:23:22.394Z,20.38
2023-02-24T14:25:52.800Z,19.94
2023-02-24T14:28:23.349Z,19.82
2023-02-24T14:30:55.012Z,19.66
2023-02-24T14:33:33.137Z,19.58
2023-02-24T14:36:01.315Z,19.43
2023-02-24T14:38:32.319Z,19.23
2023-02-24T14:40:59.758Z,19.19
2023-02-24T14:43:26.960Z,19.14
2023-02-24T14:45:54.804Z,18.96
2023-02-24T14:48:52.534Z,18.63
2023-02-24T14:51:25.109Z,18.57
2023-02-24T14:53:54.645Z,18.57
2023-02-24T14:56:22.578Z,18.63
2023-02-24T14:58:54.819Z,18.56
2023-02-24T15:01:34.627Z,18.43
2023-02-24T15:04:11.342Z,18.19
2023-02-24T15:06:41.075Z,18.02
2023-02-24T15:09:42.644Z,17.86
2023-02-24T15:12:29.917Z,17.75
2023-02-24T15:14:57.806Z,17.68
2023-02-24T15:17:25.354Z,17.57
2023-02-24T15:19:55.846Z,17.49
2023-02-24T15:22:25.822Z,17.45
2023-02-24T15:24:55.848Z,17.37
2023-02-24T15:27:27.988Z,17.27
2023-02-24T15:30:07.982Z,17.29
2023-02-24T15:32:37.710Z,17.31
2023-02-24T15:35:05.610Z,17.20
2023-02-24T15:37:42.062Z,17.22
2023-02-24T15:40:21.731Z,17.20
2023-02-24T15:42:56.780Z,17.19
2023-02-24T15:45:23.782Z,17.05
2023-02-24T15:47:55.611Z,16.98
2023-02-24T15:50:23.619Z,16.93
2023-02-24T15:52:51.222Z,16.91
2023-02-24T15:55:20.000Z,16.89
2023-02-24T15:57:48.405Z,16.84
2023-02-24T16:00:18.354Z,16.82
2023-02-24T16:02:47.144Z,16.82
2023-02-24T16:05:14.710Z,16.84
2023-02-24T16:07:44.205Z,16.84
2023-02-24T16:10:27.725Z,16.86
2023-02-24T16:12:56.151Z,16.81
2023-02-24T16:15:31.921Z,16.80
2023-02-24T16:17:59.442Z,16.75
2023-02-24T16:20:28.505Z,16.67
2023-02-24T16:22:57.361Z,16.55
2023-02-24T16:25:24.893Z,16.49
2023-02-24T16:27:57.387Z,16.36
2023-02-24T16:30:30.528Z,16.25
2023-02-24T16:32:59.584Z,16.14
2023-02-24T16:35:31.522Z,16.06
2023-02-24T16:38:00.868Z,16.00
2023-02-24T16:40:33.650Z,15.90
2023-02-24T16:43:01.697Z,15.84
2023-02-24T16:45:29.890Z,15.73
2023-02-24T16:47:59.121Z,15.66
2023-02-24T16:50:31.759Z,15.57
2023-02-24T16:52:59.985Z,15.54
2023-02-24T16:55:27.579Z,15.50
2023-02-24T16:57:55.562Z,15.43
2023-02-24T17:00:24.398Z,15.38
2023-02-24T17:02:52.375Z,15.35
2023-02-24T17:05:21.032Z,15.38
2023-02-24T17:07:48.974Z,15.33
2023-02-24T17:10:17.772Z,15.30
2023-02-24T17:12:45.455Z,15.32
2023-02-24T17:15:17.397Z,15.25
2023-02-24T17:17:44.941Z,15.20
2023-02-24T17:20:16.080Z,15.20
2023-02-24T17:22:44.132Z,15.16
2023-02-24T17:25:19.079Z,15.11
2023-02-24T17:27:47.366Z,15.09
2023-02-24T17:30:15.957Z,15.08
2023-02-24T17:32:44.157Z,15.05
2023-02-24T17:35:12.168Z,15.09
2023-02-24T17:37:40.319Z,15.08
2023-02-24T17:40:09.789Z,15.08
2023-02-24T17:42:37.759Z,15.03
2023-02-24T17:45:08.176Z,15.00
2023-02-24T17:47:36.579Z,14.96
2023-02-24T17:50:04.192Z,14.98
2023-02-24T17:52:32.156Z,14.94
2023-02-24T17:55:00.013Z,14.92
2023-02-24T17:57:29.474Z,14.92
2023-02-24T17:59:57.120Z,14.88
2023-02-24T18:02:24.560Z,14.89
2023-02-24T18:04:52.844Z,14.84
2023-02-24T18:07:21.239Z,14.83
2023-02-24T18:09:49.266Z,14.84
2023-02-24T18:12:18.704Z,14.78
2023-02-24T18:14:51.354Z,14.77
2023-02-24T18:17:24.506Z,14.73
2023-02-24T18:19:55.613Z,14.71
2023-02-24T18:22:23.237Z,14.69
2023-02-24T18:24:51.124Z,14.68
2023-02-24T18:27:17.992Z,14.69
2023-02-24T18:29:45.966Z,14.66
2023-02-24T18:32:14.046Z,14.64
2023-02-24T18:34:41.760Z,14.66
2023-02-24T18:37:09.380Z,14.63
2023-02-24T18:39:37.661Z,14.71
2023-02-24T18:42:05.954Z,14.63
2023-02-24T18:44:33.884Z,14.69
2023-02-24T18:47:01.960Z,14.66
2023-02-24T18:49:29.996Z,14.65
2023-02-24T18:51:59.662Z,14.65
2023-02-24T18:54:27.304Z,14.64
2023-02-24T18:56:55.317Z,14.62
2023-02-24T18:59:23.276Z,14.62
2023-02-24T19:01:51.548Z,14.59
2023-02-24T19:04:19.583Z,14.58
2023-02-24T19:06:49.121Z,14.57
2023-02-24T19:09:16.549Z,14.52
2023-02-24T19:11:44.343Z,14.49
2023-02-24T19:14:12.210Z,14.46
2023-02-24T19:16:40.432Z,14.44
2023-02-24T19:19:08.075Z,14.41
2023-02-24T19:21:35.899Z,14.40
2023-02-24T19:24:08.117Z,14.38
2023-02-24T19:26:35.765Z,14.33
2023-02-24T19:29:04.062Z,14.31
2023-02-24T19:31:32.567Z,14.28
2023-02-24T19:34:23.673Z,14.26
2023-02-24T19:36:51.603Z,14.35
2023-02-24T19:39:19.205Z,14.27
2023-02-24T19:41:49.473Z,14.24
2023-02-24T19:44:16.930Z,14.23
2023-02-24T19:46:44.794Z,14.21
2023-02-24T19:49:12.369Z,14.33
2023-02-24T19:51:39.872Z,14.26
2023-02-24T19:54:08.219Z,14.25
2023-02-24T19:56:36.790Z,14.24
2023-02-24T19:59:05.909Z,14.26
2023-02-24T20:01:33.624Z,14.29
2023-02-24T20:04:02.485Z,14.32
2023-02-24T20:06:31.924Z,14.26
2023-02-24T20:08:59.980Z,14.30
2023-02-24T20:11:29.761Z,14.19
2023-02-24T20:13:56.976Z,14.15
2023-02-24T20:16:26.264Z,14.13
2023-02-24T20:18:55.564Z,14.25
2023-02-24T20:21:23.751Z,14.18
2023-02-24T20:23:51.348Z,14.11
2023-02-24T20:26:19.827Z,14.11
2023-02-24T20:28:47.979Z,14.14
2023-02-24T20:31:17.642Z,14.11
2023-02-24T20:33:45.598Z,14.02
2023-02-24T20:36:24.381Z,14.00
2023-02-24T20:38:52.676Z,13.98
2023-02-24T20:41:20.801Z,13.91
2023-02-24T20:43:49.142Z,13.83
2023-02-24T20:46:24.268Z,13.83
2023-02-24T20:48:53.381Z,13.87
2023-02-24T20:51:20.991Z,13.87
2023-02-24T20:53:57.337Z,13.90
2023-02-24T20:56:26.869Z,13.93
2023-02-24T20:59:00.384Z,13.92
2023-02-24T21:01:27.954Z,13.93
2023-02-24T21:03:55.973Z,13.92
2023-02-24T21:06:23.857Z,13.91
2023-02-24T21:08:53.416Z,13.90
2023-02-24T21:11:21.592Z,13.91
2023-02-24T21:13:49.321Z,13.92
2023-02-24T21:16:18.069Z,13.90
2023-02-24T21:18:46.594Z,13.94
2023-02-24T21:21:15.380Z,13.87
2023-02-24T21:23:42.553Z,13.88
2023-02-24T21:26:09.840Z,13.90
2023-02-24T21:28:37.459Z,13.88
2023-02-24T21:31:11.677Z,13.89
2023-02-24T21:33:39.896Z,13.94
2023-02-24T21:36:09.832Z,13.94
2023-02-24T21:38:38.275Z,13.95
2023-02-24T21:41:07.126Z,13.91
2023-02-24T21:43:35.197Z,13.87
2023-02-24T21:46:03.681Z,13.82
2023-02-24T21:48:31.563Z,13.80
2023-02-24T21:51:00.549Z,13.75
2023-02-24T21:53:28.545Z,13.69
2023-02-24T21:56:04.556Z,13.63
2023-02-24T21:58:32.878Z,13.60
2023-02-24T22:01:01.238Z,13.58
2023-02-24T22:03:29.218Z,13.51
2023-02-24T22:05:56.863Z,13.47
2023-02-24T22:08:24.961Z,13.40
2023-02-24T22:10:59.759Z,13.38
2023-02-24T22:13:27.594Z,13.32
2023-02-24T22:15:55.195Z,13.31
2023-02-24T22:18:23.207Z,13.29
2023-02-24T22:20:51.142Z,13.26
2023-02-24T22:23:18.992Z,13.23
2023-02-24T22:25:46.926Z,13.23
2023-02-24T22:28:14.893Z,13.25
2023-02-24T22:30:42.889Z,13.22
2023-02-24T22:33:10.863Z,13.24
2023-02-24T22:35:38.900Z,13.19
2023-02-24T22:38:06.519Z,13.19
2023-02-24T22:40:34.052Z,13.18
2023-02-24T22:43:01.805Z,13.18
2023-02-24T22:45:29.892Z,13.16
2023-02-24T22:47:59.417Z,13.22
2023-02-24T22:50:27.928Z,13.15
2023-02-24T22:52:56.196Z,13.10
2023-02-24T22:55:25.115Z,13.07
2023-02-24T22:57:53.113Z,13.00
2023-02-24T23:00:23.313Z,13.00
2023-02-24T23:02:50.872Z,12.95
2023-02-24T23:05:19.041Z,12.94
2023-02-24T23:07:48.575Z,12.95
2023-02-24T23:10:17.075Z,12.98
2023-02-24T23:12:44.971Z,12.97
2023-02-24T23:15:13.819Z,12.96
2023-02-24T23:17:42.300Z,12.91
2023-02-24T23:20:12.892Z,12.88
2023-02-24T23:22:40.902Z,12.88
2023-02-24T23:25:31.172Z,12.83
2023-02-24T23:27:59.462Z,12.83
2023-02-24T23:30:27.042Z,12.88
2023-02-24T23:32:54.994Z,12.83
2023-02-24T23:35:22.581Z,12.76
2023-02-24T23:37:50.798Z,12.75
2023-02-24T23:40:25.904Z,12.59
2023-02-24T23:42:53.322Z,12.52
2023-02-24T23:45:21.276Z,12.51
2023-02-24T23:47:49.234Z,12.50
2023-02-24T23:50:18.449Z,12.49
2023-02-24T23:52:46.085Z,12.44
2023-02-24T23:55:13.813Z,12.50
2023-02-24T23:57:42.210Z,12.52
